Time;durP1;ratioP1;P1;durP2;ratioP2;P2;SDS_P1;SDS_P2;PMS_P1;PMS_P2;Temp;Humidity;BMP_temperature;BMP_pressure;BME280_temperature;BME280_humidity;BME280_pressure;Samples;Min_cycle;Max_cycle;Signal;HPM_P1;HPM_P2
2022/06/16 00:00:23;;;;;;;8.90;3.10;;;27.00;49.40;;;;;;6201308;28;20031;-70
2022/06/16 00:03:24;;;;;;;7.55;2.80;;;26.90;49.30;;;;;;6182546;28;20030;-70
2022/06/16 00:06:26;;;;;;;16.25;2.58;;;26.90;49.30;;;;;;6179686;28;20011;-70
2022/06/16 00:09:27;;;;;;;9.15;2.90;;;26.90;49.40;;;;;;6186759;28;20026;-71
2022/06/16 00:12:28;;;;;;;6.88;2.78;;;26.90;49.40;;;;;;6185541;28;20023;-70
2022/06/16 00:15:29;;;;;;;8.68;2.17;;;26.80;49.40;;;;;;6200534;28;20042;-70
2022/06/16 00:18:31;;;;;;;3.95;2.13;;;26.80;49.30;;;;;;6181768;28;20041;-70
2022/06/16 00:21:32;;;;;;;7.03;2.03;;;26.80;49.20;;;;;;6185169;28;20046;-70
2022/06/16 00:24:33;;;;;;;13.35;2.40;;;26.90;49.10;;;;;;6183981;28;20406;-70
2022/06/16 00:27:34;;;;;;;5.75;2.05;;;26.80;48.90;;;;;;6184788;28;20332;-70
2022/06/16 00:30:35;;;;;;;14.65;2.83;;;26.80;49.00;;;;;;6200654;28;20320;-70
2022/06/16 00:33:37;;;;;;;8.55;2.55;;;26.80;49.00;;;;;;6197529;28;20029;-71
2022/06/16 00:36:38;;;;;;;8.50;1.92;;;26.80;48.90;;;;;;6195256;28;20443;-70
2022/06/16 00:39:39;;;;;;;8.57;2.88;;;26.70;48.90;;;;;;6178946;28;20171;-70
2022/06/16 00:42:43;;;;;;;12.60;2.80;;;26.70;48.90;;;;;;6190451;28;20022;-70
2022/06/16 00:45:56;;;;;;;9.07;1.90;;;26.70;48.90;;;;;;6163096;28;20023;-70
2022/06/16 00:49:03;;;;;;;7.53;2.58;;;26.70;48.90;;;;;;6197773;28;20028;-71
2022/06/16 00:52:21;;;;;;;18.43;2.73;;;26.60;49.00;;;;;;6184058;28;20033;-71
2022/06/16 00:55:22;;;;;;;10.57;2.88;;;26.60;49.20;;;;;;6190450;28;20050;-71
2022/06/16 00:58:25;;;;;;;5.43;1.90;;;26.60;49.30;;;;;;6208279;28;20022;-71
2022/06/16 01:01:26;;;;;;;6.05;2.10;;;26.50;49.30;;;;;;6182456;28;20448;-71
2022/06/16 01:07:48;;;;;;;7.13;2.30;;;26.50;49.30;;;;;;6204502;28;20084;-71
2022/06/16 01:10:51;;;;;;;14.80;2.88;;;26.50;49.30;;;;;;6189628;28;20038;-71
2022/06/16 01:13:56;;;;;;;6.22;2.38;;;26.50;49.40;;;;;;6199460;28;20057;-71
2022/06/16 01:17:01;;;;;;;10.45;2.50;;;26.50;49.70;;;;;;6180052;28;20045;-71
2022/06/16 01:20:29;;;;;;;10.50;3.40;;;26.50;49.80;;;;;;6202717;28;20025;-71
2022/06/16 01:23:53;;;;;;;8.10;2.50;;;26.40;49.80;;;;;;6188556;28;20038;-70
2022/06/16 01:27:21;;;;;;;6.57;2.17;;;26.40;49.90;;;;;;6193428;28;20041;-70
2022/06/16 01:30:35;;;;;;;12.30;3.10;;;26.30;50.00;;;;;;6176390;28;20149;-70
2022/06/16 01:33:43;;;;;;;7.15;2.30;;;26.20;50.10;;;;;;6185097;28;20026;-69
2022/06/16 01:36:59;;;;;;;10.65;2.83;;;26.20;50.20;;;;;;6201124;28;20475;-70
2022/06/16 01:40:26;;;;;;;5.32;1.92;;;26.20;50.30;;;;;;6191883;28;20041;-70
2022/06/16 01:43:41;;;;;;;5.57;2.33;;;26.10;50.30;;;;;;6204720;28;20026;-69
2022/06/16 01:46:45;;;;;;;5.20;2.30;;;26.10;50.40;;;;;;6204151;28;20039;-70
2022/06/16 01:49:57;;;;;;;4.35;2.05;;;26.00;50.40;;;;;;6176761;28;20466;-70
2022/06/16 01:53:08;;;;;;;7.00;2.33;;;26.00;50.40;;;;;;6175032;28;20050;-69
2022/06/16 01:56:34;;;;;;;5.53;2.40;;;26.00;50.30;;;;;;6182244;28;20359;-70
2022/06/16 01:59:43;;;;;;;10.52;2.60;;;26.00;50.20;;;;;;6186421;28;20363;-70
2022/06/16 02:02:47;;;;;;;6.22;2.17;;;25.90;49.90;;;;;;6183082;28;20340;-70
2022/06/16 02:05:53;;;;;;;5.00;1.98;;;25.90;49.80;;;;;;6202877;28;20029;-70
2022/06/16 02:09:01;;;;;;;7.57;1.65;;;25.90;49.70;;;;;;6184380;28;20033;-69
2022/06/16 02:12:07;;;;;;;5.30;2.10;;;25.90;49.70;;;;;;6188139;28;20360;-69
2022/06/16 02:15:20;;;;;;;5.53;1.90;;;25.90;49.60;;;;;;6205678;28;20069;-69
2022/06/16 02:18:35;;;;;;;5.38;1.83;;;25.80;49.50;;;;;;6180610;28;20101;-72
2022/06/16 02:21:41;;;;;;;8.43;2.00;;;25.80;49.40;;;;;;6194870;28;20018;-69
2022/06/16 02:24:43;;;;;;;7.97;2.38;;;25.80;49.40;;;;;;6167142;28;20037;-69
2022/06/16 02:27:44;;;;;;;12.27;2.30;;;25.80;49.30;;;;;;6193380;28;20017;-69
2022/06/16 02:31:03;;;;;;;12.07;2.60;;;25.80;49.20;;;;;;6176100;28;20015;-70
2022/06/16 02:34:25;;;;;;;8.23;1.97;;;25.80;49.10;;;;;;6182772;28;20026;-70
2022/06/16 02:37:44;;;;;;;5.97;2.17;;;25.80;49.10;;;;;;6181017;28;20023;-70
2022/06/16 02:41:03;;;;;;;9.07;2.38;;;25.80;49.00;;;;;;6182417;28;20036;-69
2022/06/16 02:44:20;;;;;;;11.60;2.28;;;25.80;49.10;;;;;;6178109;28;20038;-70
2022/06/16 02:47:48;;;;;;;11.63;2.50;;;25.80;49.10;;;;;;6198237;28;20439;-69
2022/06/16 02:51:04;;;;;;;8.10;2.40;;;25.80;49.10;;;;;;6178876;28;20113;-70
2022/06/16 02:54:21;;;;;;;5.90;2.00;;;25.80;49.20;;;;;;6193546;28;20022;-69
2022/06/16 02:57:30;;;;;;;5.38;1.80;;;25.80;49.00;;;;;;6185161;28;20022;-69
2022/06/16 03:00:37;;;;;;;6.32;1.90;;;25.80;48.90;;;;;;6180057;28;20109;-69
2022/06/16 03:03:39;;;;;;;6.07;2.28;;;25.80;48.90;;;;;;6180326;28;20026;-69
2022/06/16 03:06:44;;;;;;;4.68;2.17;;;25.80;49.00;;;;;;6193266;28;20132;-69
2022/06/16 03:09:46;;;;;;;8.68;2.22;;;25.70;48.90;;;;;;6185261;28;20453;-70
2022/06/16 03:12:46;;;;;;;7.45;2.50;;;25.70;49.00;;;;;;6188927;28;20026;-70
2022/06/16 03:15:52;;;;;;;8.27;2.60;;;25.70;49.00;;;;;;6198635;28;20529;-70
2022/06/16 03:18:53;;;;;;;5.32;1.98;;;25.70;49.10;;;;;;6174934;28;20030;-70
2022/06/16 03:21:57;;;;;;;5.80;2.30;;;25.70;49.20;;;;;;6200299;28;20037;-70
2022/06/16 03:24:58;;;;;;;8.77;2.70;;;25.70;49.40;;;;;;6178064;28;20036;-70
2022/06/16 03:27:59;;;;;;;7.82;2.50;;;25.60;49.50;;;;;;6204560;28;20347;-70
2022/06/16 03:31:04;;;;;;;11.25;3.15;;;25.60;49.70;;;;;;6181194;28;20338;-70
2022/06/16 03:34:06;;;;;;;11.35;3.63;;;25.60;50.10;;;;;;6192088;28;20060;-70
2022/06/16 03:37:12;;;;;;;8.27;2.85;;;25.60;50.50;;;;;;6182020;28;20037;-70
2022/06/16 03:40:24;;;;;;;13.82;3.65;;;25.60;51.00;;;;;;6187893;28;20034;-70
2022/06/16 03:43:27;;;;;;;5.40;2.75;;;25.50;51.20;;;;;;6175177;28;20034;-70
2022/06/16 03:46:32;;;;;;;20.30;2.92;;;25.40;51.50;;;;;;6190122;28;20021;-70
2022/06/16 03:49:43;;;;;;;5.57;2.58;;;25.40;51.90;;;;;;6190351;28;20038;-71
2022/06/16 03:52:44;;;;;;;12.02;3.08;;;25.40;52.20;;;;;;6190182;28;20490;-70
2022/06/16 03:55:46;;;;;;;9.10;2.60;;;25.40;52.50;;;;;;6178021;28;20332;-70
2022/06/16 03:58:52;;;;;;;10.30;3.20;;;25.30;52.70;;;;;;6189176;28;20032;-71
2022/06/16 04:01:53;;;;;;;5.78;2.92;;;25.30;52.90;;;;;;6198136;28;20060;-70
2022/06/16 04:04:56;;;;;;;13.05;3.55;;;25.30;53.00;;;;;;6186065;28;20037;-71
2022/06/16 04:07:57;;;;;;;10.65;3.00;;;25.30;53.80;;;;;;6196446;28;20022;-71
2022/06/16 04:11:26;;;;;;;6.18;2.75;;;25.30;53.90;;;;;;6181803;28;20030;-71
2022/06/16 04:14:23;;;;;;;19.30;3.50;;;25.30;53.30;;;;;;6199630;28;20057;-72
2022/06/16 04:17:42;;;;;;;14.63;3.33;;;25.30;53.50;;;;;;6190275;28;20391;-71
2022/06/16 04:20:54;;;;;;;13.57;3.63;;;25.20;53.50;;;;;;6181064;28;20026;-70
2022/06/16 04:24:20;;;;;;;8.75;3.10;;;25.20;53.70;;;;;;6193737;28;20398;-70
2022/06/16 04:27:22;;;;;;;11.68;3.42;;;25.20;53.80;;;;;;6200533;28;20336;-69
2022/06/16 04:30:23;;;;;;;11.70;3.63;;;25.20;53.70;;;;;;6184873;28;20023;-70
2022/06/16 04:33:24;;;;;;;10.23;2.70;;;25.20;53.60;;;;;;6196808;28;20084;-71
2022/06/16 04:36:26;;;;;;;15.27;3.20;;;25.20;53.50;;;;;;6173422;28;20026;-70
2022/06/16 04:39:37;;;;;;;5.43;2.70;;;25.20;53.40;;;;;;6190773;28;20105;-70
2022/06/16 04:42:38;;;;;;;8.57;2.70;;;25.20;53.40;;;;;;6183388;28;20027;-70
2022/06/16 04:45:44;;;;;;;7.70;3.40;;;25.20;53.40;;;;;;6196502;28;20027;-70
2022/06/16 04:48:46;;;;;;;3.42;2.72;;;25.20;53.40;;;;;;6180889;28;20033;-70
2022/06/16 04:51:48;;;;;;;5.88;3.63;;;25.20;53.20;;;;;;6197843;28;20047;-70
2022/06/16 04:54:52;;;;;;;9.38;3.15;;;25.20;53.10;;;;;;6176909;28;20018;-70
2022/06/16 04:58:12;;;;;;;10.60;3.20;;;25.30;53.10;;;;;;6195200;28;20042;-69
2022/06/16 05:01:39;;;;;;;9.80;3.45;;;25.40;52.90;;;;;;6179413;28;20023;-71
2022/06/16 05:04:42;;;;;;;7.85;3.03;;;25.40;52.80;;;;;;6201788;28;20077;-70
2022/06/16 05:08:01;;;;;;;12.05;3.42;;;25.40;52.80;;;;;;6182344;28;20035;-69
2022/06/16 05:11:32;;;;;;;10.98;2.80;;;25.50;52.10;;;;;;6133693;29;20037;-71
2022/06/16 05:14:51;;;;;;;8.05;3.03;;;25.50;51.00;;;;;;6103366;29;20513;-70
2022/06/16 05:18:21;;;;;;;4.20;2.20;;;25.60;50.60;;;;;;6044285;29;20410;-70
2022/06/16 05:22:00;;;;;;;7.15;2.25;;;25.60;49.90;;;;;;5968905;29;20091;-70
2022/06/16 05:25:22;;;;;;;6.90;2.60;;;25.60;49.50;;;;;;5972492;29;20076;-69
2022/06/16 05:28:58;;;;;;;6.25;2.60;;;25.60;49.20;;;;;;5949382;29;20051;-70
2022/06/16 05:32:11;;;;;;;9.32;2.60;;;25.70;49.00;;;;;;5949033;29;20437;-70
2022/06/16 05:35:32;;;;;;;13.98;2.97;;;25.80;48.80;;;;;;5950883;29;20054;-70
2022/06/16 05:38:51;;;;;;;11.55;3.00;;;25.70;48.70;;;;;;5948885;29;20038;-70
2022/06/16 05:42:11;;;;;;;4.85;2.28;;;25.70;48.70;;;;;;5949356;29;20034;-71
2022/06/16 05:45:30;;;;;;;14.25;2.88;;;25.70;48.70;;;;;;5953946;29;20113;-71
2022/06/16 05:48:45;;;;;;;8.27;3.17;;;25.80;48.70;;;;;;5985714;29;20039;-70
2022/06/16 05:51:48;;;;;;;11.48;3.13;;;25.90;48.60;;;;;;5991339;29;20026;-70
2022/06/16 05:54:55;;;;;;;13.50;2.55;;;25.90;48.60;;;;;;6053801;28;20103;-70
2022/06/16 05:58:01;;;;;;;8.52;2.85;;;26.00;48.50;;;;;;6137004;28;20038;-70
2022/06/16 06:01:05;;;;;;;9.23;3.08;;;26.00;48.60;;;;;;6121135;28;20020;-72
2022/06/16 06:04:06;;;;;;;10.73;3.20;;;26.10;48.60;;;;;;6171624;28;20355;-70
2022/06/16 06:07:09;;;;;;;10.40;3.05;;;26.10;48.50;;;;;;6190985;28;20025;-71
2022/06/16 06:16:54;;;;;;;8.10;2.95;;;26.30;48.80;;;;;;6203127;28;20045;-71
2022/06/16 06:19:55;;;;;;;15.00;3.53;;;26.30;49.00;;;;;;6184526;28;20049;-70
2022/06/16 06:22:56;;;;;;;8.27;2.95;;;26.30;49.20;;;;;;6184957;28;20040;-71
2022/06/16 06:25:57;;;;;;;14.38;3.38;;;26.40;49.40;;;;;;6182890;28;20041;-71
2022/06/16 06:28:59;;;;;;;10.00;3.90;;;26.40;49.40;;;;;;6187231;28;20358;-71
2022/06/16 06:32:01;;;;;;;7.40;3.40;;;26.50;49.40;;;;;;6183050;28;20018;-71
2022/06/16 06:35:04;;;;;;;12.20;3.70;;;26.70;49.50;;;;;;6180791;28;20309;-70
2022/06/16 06:38:05;;;;;;;16.95;3.67;;;26.70;49.30;;;;;;6178834;28;20046;-71
2022/06/16 06:41:08;;;;;;;11.30;3.75;;;26.90;49.30;;;;;;6191259;28;20023;-70
2022/06/16 06:44:09;;;;;;;15.00;4.35;;;27.00;49.10;;;;;;6170857;28;20671;-70
2022/06/16 06:47:22;;;;;;;7.95;3.40;;;27.10;49.00;;;;;;6183435;28;20075;-70
2022/06/16 06:50:28;;;;;;;12.27;4.03;;;27.20;48.80;;;;;;6204525;28;20084;-69
2022/06/16 06:53:29;;;;;;;12.70;3.72;;;27.30;48.60;;;;;;6200088;28;20074;-71
2022/06/16 06:56:31;;;;;;;9.15;3.97;;;27.40;48.40;;;;;;6184605;28;20037;-70
2022/06/16 06:59:32;;;;;;;18.50;4.07;;;27.50;48.20;;;;;;6182603;28;20055;-70
2022/06/16 07:02:33;;;;;;;11.75;3.53;;;27.70;48.00;;;;;;6195614;28;20333;-69
2022/06/16 07:05:34;;;;;;;6.20;3.47;;;27.80;47.80;;;;;;6175079;28;20034;-70
2022/06/16 07:08:35;;;;;;;12.38;4.03;;;27.80;47.60;;;;;;6199621;28;20033;-70
2022/06/16 07:11:36;;;;;;;13.50;4.20;;;27.90;47.60;;;;;;6185653;28;20093;-71
2022/06/16 07:14:36;;;;;;;18.45;3.80;;;28.00;47.50;;;;;;6202234;28;20047;-71
2022/06/16 07:17:37;;;;;;;14.85;4.03;;;28.10;47.20;;;;;;6197586;28;20155;-69
2022/06/16 07:20:39;;;;;;;17.83;4.07;;;28.20;47.00;;;;;;6206033;28;20343;-70
2022/06/16 07:23:40;;;;;;;13.88;3.40;;;28.30;46.90;;;;;;6191386;28;20074;-71
2022/06/16 07:26:41;;;;;;;9.18;3.83;;;28.40;46.70;;;;;;6200384;28;20042;-74
2022/06/16 07:29:42;;;;;;;16.88;3.88;;;28.60;46.40;;;;;;6199500;28;20014;-71
2022/06/16 07:32:44;;;;;;;16.50;3.58;;;28.70;45.90;;;;;;6185172;28;20058;-70
2022/06/16 07:35:45;;;;;;;16.35;3.67;;;28.80;45.70;;;;;;6202326;28;20014;-70
2022/06/16 07:38:46;;;;;;;18.65;3.45;;;29.00;45.50;;;;;;6201767;28;20037;-70
2022/06/16 07:41:48;;;;;;;13.02;3.03;;;29.10;45.20;;;;;;6198771;28;20064;-70
2022/06/16 07:44:49;;;;;;;10.23;3.50;;;29.20;44.90;;;;;;6199993;28;20534;-71
2022/06/16 07:47:51;;;;;;;12.05;3.15;;;29.30;44.50;;;;;;6175916;28;20022;-70
2022/06/16 07:50:52;;;;;;;6.00;2.63;;;29.50;44.00;;;;;;6181617;28;20056;-72
2022/06/16 07:53:53;;;;;;;13.77;3.15;;;29.60;43.40;;;;;;6199636;28;20042;-72
2022/06/16 07:56:54;;;;;;;12.10;2.90;;;29.70;43.20;;;;;;6201951;28;20084;-71
2022/06/16 07:59:56;;;;;;;11.55;2.88;;;29.80;42.80;;;;;;6202287;28;20054;-70
2022/06/16 08:02:57;;;;;;;11.07;3.35;;;30.00;42.00;;;;;;6177999;28;20041;-71
2022/06/16 08:05:58;;;;;;;12.10;3.40;;;30.10;41.70;;;;;;6199269;28;20018;-70
2022/06/16 08:08:59;;;;;;;13.10;3.22;;;30.20;41.50;;;;;;6178583;28;20088;-72
2022/06/16 08:12:05;;;;;;;13.07;3.17;;;30.40;41.10;;;;;;6181030;28;20034;-72
2022/06/16 08:15:06;;;;;;;5.57;3.05;;;30.40;40.60;;;;;;6199542;28;20030;-71
2022/06/16 08:18:08;;;;;;;8.80;3.05;;;30.60;40.60;;;;;;6187424;28;20018;-71
2022/06/16 08:21:09;;;;;;;9.80;2.90;;;30.80;40.30;;;;;;6179369;28;20018;-73
2022/06/16 08:24:10;;;;;;;5.60;3.17;;;30.90;39.90;;;;;;6203236;28;20461;-73
2022/06/16 08:27:11;;;;;;;13.40;3.58;;;31.00;39.60;;;;;;6183871;28;20028;-70
2022/06/16 08:30:16;;;;;;;10.60;3.53;;;31.10;39.30;;;;;;6178979;28;20034;-71
2022/06/16 08:33:18;;;;;;;12.68;3.45;;;31.20;38.90;;;;;;6197224;28;20030;-71
2022/06/16 08:36:20;;;;;;;14.57;3.40;;;31.20;38.90;;;;;;6182989;28;20030;-71
2022/06/16 08:39:20;;;;;;;11.95;2.95;;;31.30;38.90;;;;;;6178452;28;20045;-73
2022/06/16 08:42:33;;;;;;;7.43;2.80;;;31.30;38.70;;;;;;6178813;28;20122;-71
2022/06/16 08:45:48;;;;;;;10.02;3.20;;;31.40;38.20;;;;;;6194829;28;20018;-70
2022/06/16 08:49:02;;;;;;;11.50;3.10;;;31.50;38.10;;;;;;6180901;28;20101;-70
2022/06/16 08:52:19;;;;;;;8.63;3.60;;;31.60;38.00;;;;;;6196264;28;20451;-71
2022/06/16 08:55:40;;;;;;;8.77;3.60;;;31.60;38.00;;;;;;6199972;28;20050;-71
2022/06/16 08:59:06;;;;;;;14.38;3.45;;;31.70;37.80;;;;;;6183896;28;20014;-71
2022/06/16 09:02:13;;;;;;;12.80;4.00;;;31.90;37.50;;;;;;6195798;28;20444;-74
2022/06/16 09:05:38;;;;;;;23.17;7.35;;;32.00;37.20;;;;;;6196155;28;20029;-70
2022/06/16 09:08:58;;;;;;;8.35;4.32;;;32.10;36.60;;;;;;6175489;28;20056;-71
2022/06/16 09:12:17;;;;;;;11.63;2.78;;;32.20;36.70;;;;;;6179457;28;20031;-71
2022/06/16 09:15:52;;;;;;;12.23;3.05;;;32.40;36.00;;;;;;6204232;28;20050;-71
2022/06/16 09:19:06;;;;;;;11.50;2.95;;;32.50;35.80;;;;;;6200518;28;20048;-72
2022/06/16 09:22:28;;;;;;;10.70;3.30;;;32.60;35.60;;;;;;6203778;28;20451;-72
2022/06/16 09:25:40;;;;;;;8.73;2.72;;;32.60;35.30;;;;;;6180147;28;20094;-71
2022/06/16 09:29:14;;;;;;;14.07;3.20;;;32.70;35.20;;;;;;6202687;28;20054;-71
2022/06/16 09:32:52;;;;;;;8.05;3.20;;;32.80;35.00;;;;;;6184555;28;20038;-71
2022/06/16 09:36:01;;;;;;;7.90;3.08;;;32.90;34.80;;;;;;6183667;28;20069;-72
2022/06/16 09:39:43;;;;;;;7.70;2.83;;;33.00;34.60;;;;;;6177653;28;20079;-70
2022/06/16 09:42:56;;;;;;;11.45;3.40;;;33.10;34.40;;;;;;6166642;28;20042;-70
2022/06/16 09:46:00;;;;;;;5.78;3.00;;;33.20;34.10;;;;;;6145451;28;20057;-70
2022/06/16 09:49:32;;;;;;;7.53;2.97;;;33.30;34.10;;;;;;6150398;28;20024;-71
2022/06/16 09:52:43;;;;;;;19.35;8.73;;;33.30;33.70;;;;;;6097713;29;20150;-71
2022/06/16 09:56:04;;;;;;;23.65;8.70;;;33.40;33.40;;;;;;6088406;29;20481;-70
2022/06/16 09:59:24;;;;;;;9.40;3.72;;;33.50;33.40;;;;;;6105078;29;20120;-70
2022/06/16 10:02:33;;;;;;;11.13;3.60;;;33.60;33.30;;;;;;6100202;29;20369;-71
2022/06/16 10:05:58;;;;;;;11.82;3.30;;;33.60;33.00;;;;;;6086847;29;20059;-71
2022/06/16 10:09:11;;;;;;;8.95;2.72;;;33.60;32.80;;;;;;6091597;29;20080;-71
2022/06/16 10:12:17;;;;;;;13.43;2.80;;;33.60;33.10;;;;;;6088156;29;20032;-71
2022/06/16 10:15:27;;;;;;;7.03;2.72;;;33.60;32.70;;;;;;6089105;29;20043;-70
2022/06/16 10:18:29;;;;;;;19.98;4.60;;;33.70;32.50;;;;;;6107017;29;20036;-70
2022/06/16 10:21:37;;;;;;;18.98;8.18;;;33.80;32.10;;;;;;6109567;29;20032;-70
2022/06/16 10:24:53;;;;;;;;;;;33.90;32.20;;;;;;6096556;29;20024;-71
2022/06/16 10:28:00;;;;;;;5.95;3.00;;;34.00;32.20;;;;;;6138325;28;19921;-71
2022/06/16 10:31:04;;;;;;;8.63;3.13;;;34.20;32.20;;;;;;6199757;28;20022;-71
2022/06/16 10:34:34;;;;;;;21.55;4.05;;;34.30;32.20;;;;;;6179733;28;20030;-71
2022/06/16 10:37:40;;;;;;;11.55;3.17;;;34.40;32.20;;;;;;6191502;28;20070;-71
2022/06/16 10:40:42;;;;;;;9.25;2.85;;;34.50;32.00;;;;;;6185764;28;20033;-72
2022/06/16 10:43:43;;;;;;;5.20;2.40;;;34.60;31.80;;;;;;6203558;28;20033;-70
2022/06/16 10:47:00;;;;;;;8.05;2.67;;;34.80;31.80;;;;;;6183190;28;20030;-71
2022/06/16 10:50:08;;;;;;;11.88;2.85;;;34.90;31.80;;;;;;6179390;28;20375;-71
2022/06/16 10:53:31;;;;;;;18.10;2.75;;;35.00;31.60;;;;;;6173669;28;20026;-71
2022/06/16 10:56:39;;;;;;;14.00;3.08;;;35.20;31.60;;;;;;6181197;28;20038;-71
2022/06/16 10:59:59;;;;;;;8.07;3.42;;;35.30;31.30;;;;;;6159363;28;20125;-71
2022/06/16 11:03:16;;;;;;;9.15;2.80;;;35.30;31.10;;;;;;6181014;28;20466;-71
2022/06/16 11:06:21;;;;;;;12.03;3.43;;;35.50;31.10;;;;;;6198838;28;20427;-69
2022/06/16 11:09:34;;;;;;;11.27;2.88;;;36.30;30.30;;;;;;6201847;28;20451;-72
2022/06/16 11:12:48;;;;;;;6.63;2.85;;;37.20;29.30;;;;;;6192192;28;20398;-73
2022/06/16 11:15:55;;;;;;;8.60;2.78;;;38.10;28.40;;;;;;6185528;28;21418;-72
2022/06/16 11:19:09;;;;;;;4.93;2.28;;;38.90;27.60;;;;;;6162981;28;20049;-71
2022/06/16 11:22:43;;;;;;;7.68;3.20;;;39.60;26.80;;;;;;6164876;28;20033;-70
2022/06/16 11:26:19;;;;;;;4.15;2.35;;;40.20;26.10;;;;;;6194155;28;20026;-73
2022/06/16 11:29:30;;;;;;;15.85;3.28;;;40.90;25.60;;;;;;6197384;28;20026;-71
2022/06/16 11:32:38;;;;;;;14.98;3.17;;;41.50;24.90;;;;;;6181643;28;20331;-71
2022/06/16 11:35:53;;;;;;;6.78;2.65;;;41.90;24.40;;;;;;6178356;28;20058;-70
2022/06/16 11:39:10;;;;;;;13.13;3.05;;;42.00;24.10;;;;;;6162169;28;20042;-72
2022/06/16 11:42:53;;;;;;;4.75;2.42;;;42.10;23.90;;;;;;6199267;28;20022;-70
2022/06/16 11:46:20;;;;;;;12.48;2.72;;;42.30;23.40;;;;;;6143441;28;20040;-72
2022/06/16 11:49:51;;;;;;;8.03;2.23;;;42.50;22.80;;;;;;6148992;28;20038;-71
2022/06/16 11:53:27;;;;;;;9.70;2.97;;;42.40;22.30;;;;;;6111174;28;20278;-71
2022/06/16 11:56:43;;;;;;;10.85;2.15;;;42.50;22.10;;;;;;6077158;29;20461;-73
2022/06/16 11:59:55;;;;;;;12.63;2.40;;;42.70;22.10;;;;;;6077093;29;20064;-72
2022/06/16 12:03:32;;;;;;;6.43;2.08;;;42.80;21.60;;;;;;6076825;29;20135;-71
2022/06/16 12:06:42;;;;;;;7.93;2.53;;;42.40;21.50;;;;;;6080225;29;20033;-71
2022/06/16 12:09:43;;;;;;;8.38;2.95;;;42.30;21.20;;;;;;6076611;29;20039;-71
2022/06/16 12:12:49;;;;;;;13.80;2.50;;;42.40;21.00;;;;;;6076995;29;20428;-72
2022/06/16 12:15:55;;;;;;;6.60;2.80;;;42.50;21.00;;;;;;6050355;29;20139;-71
2022/06/16 12:19:18;;;;;;;8.45;2.47;;;42.70;21.10;;;;;;6076524;29;20036;-72
2022/06/16 12:22:44;;;;;;;10.73;2.85;;;42.90;21.00;;;;;;6085077;29;20043;-71
2022/06/16 12:25:53;;;;;;;7.50;2.20;;;42.90;21.00;;;;;;6091829;29;20047;-72
2022/06/16 12:29:08;;;;;;;12.48;2.90;;;43.10;20.70;;;;;;6097395;29;20395;-72
2022/06/16 12:32:46;;;;;;;9.68;2.65;;;43.10;20.70;;;;;;6120704;28;20026;-72
2022/06/16 12:35:55;;;;;;;5.20;2.50;;;43.00;20.70;;;;;;6179379;28;20074;-71
2022/06/16 12:39:00;;;;;;;10.25;3.00;;;43.00;20.50;;;;;;6176486;28;20080;-71
2022/06/16 12:42:12;;;;;;;10.82;2.78;;;43.10;20.60;;;;;;6178219;28;20070;-71
2022/06/16 12:45:21;;;;;;;8.55;2.60;;;43.30;20.40;;;;;;6198246;28;20014;-71
2022/06/16 12:48:38;;;;;;;14.10;2.20;;;43.50;19.90;;;;;;6165407;28;20069;-72
2022/06/16 12:51:47;;;;;;;11.80;2.35;;;43.40;19.70;;;;;;6180369;28;20030;-74
2022/06/16 12:55:00;;;;;;;11.27;2.28;;;43.50;19.40;;;;;;6204060;28;20018;-73
2022/06/16 12:58:22;;;;;;;8.13;2.25;;;43.60;19.20;;;;;;6199989;28;20072;-73
2022/06/16 13:01:23;;;;;;;8.73;2.40;;;44.00;18.70;;;;;;6183913;28;20018;-71
2022/06/16 13:04:30;;;;;;;7.72;2.30;;;44.50;18.50;;;;;;6200644;28;20348;-71
2022/06/16 13:07:32;;;;;;;12.00;2.60;;;45.00;18.20;;;;;;6197201;28;20022;-72
2022/06/16 13:10:39;;;;;;;9.85;2.97;;;45.40;18.00;;;;;;6183032;28;20018;-72
2022/06/16 13:13:52;;;;;;;9.77;2.15;;;45.70;17.80;;;;;;6182174;28;20046;-70
2022/06/16 13:16:57;;;;;;;9.77;2.40;;;46.00;17.50;;;;;;6191394;28;20046;-72
2022/06/16 13:20:04;;;;;;;11.40;2.25;;;46.10;17.20;;;;;;6200748;28;20479;-72
2022/06/16 13:23:17;;;;;;;4.05;2.40;;;46.30;17.00;;;;;;6179603;28;20034;-72
2022/06/16 13:26:32;;;;;;;9.05;2.45;;;46.70;16.70;;;;;;6203101;28;20025;-72
2022/06/16 13:30:10;;;;;;;10.52;2.47;;;47.20;16.70;;;;;;6196914;28;20010;-72
2022/06/16 13:33:20;;;;;;;8.65;2.55;;;48.00;16.40;;;;;;6180435;28;20035;-72
2022/06/16 13:36:26;;;;;;;9.20;2.45;;;48.70;15.70;;;;;;6186770;28;20502;-72
2022/06/16 13:39:46;;;;;;;;;;;49.00;15.40;;;;;;6172067;28;20038;-73
2022/06/16 13:42:55;;;;;;;8.48;2.70;;;49.40;15.20;;;;;;6195585;28;19913;-72
2022/06/16 13:46:02;;;;;;;13.63;2.83;;;49.60;14.90;;;;;;6207253;28;20042;-72
2022/06/16 13:49:05;;;;;;;8.13;2.63;;;49.90;14.70;;;;;;6177830;28;20019;-72
2022/06/16 13:52:14;;;;;;;10.13;2.30;;;50.30;14.60;;;;;;6202884;28;20408;-72
2022/06/16 13:55:14;;;;;;;7.85;2.33;;;50.90;14.20;;;;;;6205746;28;20078;-72
2022/06/16 13:58:43;;;;;;;8.70;3.00;;;51.40;13.80;;;;;;6203104;28;20022;-72
2022/06/16 14:02:08;;;;;;;7.10;2.40;;;51.60;13.50;;;;;;6184267;28;20463;-73
2022/06/16 14:05:10;;;;;;;2.83;1.77;;;51.80;13.30;;;;;;6184068;28;20085;-73
2022/06/16 14:08:16;;;;;;;7.47;2.15;;;52.40;12.90;;;;;;6179392;28;20030;-72
2022/06/16 14:11:30;;;;;;;6.97;1.75;;;52.40;12.40;;;;;;6175003;28;20018;-72
2022/06/16 14:14:55;;;;;;;8.45;2.20;;;52.30;12.50;;;;;;6197657;28;20046;-72
2022/06/16 14:18:09;;;;;;;9.93;1.60;;;52.40;12.40;;;;;;6200593;28;20080;-74
2022/06/16 14:21:12;;;;;;;10.43;1.95;;;52.20;12.20;;;;;;6183418;28;20018;-73
2022/06/16 14:24:22;;;;;;;5.35;2.10;;;51.90;12.30;;;;;;6190713;28;20025;-72
2022/06/16 14:27:49;;;;;;;7.45;2.03;;;51.70;12.10;;;;;;6203959;28;20347;-72
2022/06/16 14:31:07;;;;;;;7.57;2.05;;;51.40;12.10;;;;;;6192608;28;20102;-73
2022/06/16 14:34:26;;;;;;;9.98;1.83;;;51.10;12.30;;;;;;6203500;28;20050;-72
2022/06/16 14:37:55;;;;;;;4.35;2.00;;;51.10;12.20;;;;;;6181572;28;20109;-73
2022/06/16 14:41:05;;;;;;;8.00;2.03;;;51.10;12.10;;;;;;6151419;28;20039;-72
2022/06/16 14:44:17;;;;;;;5.68;2.17;;;51.10;12.20;;;;;;6153199;28;20086;-72
2022/06/16 14:47:41;;;;;;;9.30;2.05;;;51.00;12.20;;;;;;6146006;28;20027;-73
2022/06/16 14:50:52;;;;;;;6.40;2.47;;;51.20;12.40;;;;;;6149060;28;20026;-73
2022/06/16 14:54:01;;;;;;;8.82;1.90;;;51.40;12.20;;;;;;6118853;28;20034;-72
2022/06/16 14:57:02;;;;;;;9.82;1.90;;;51.40;11.80;;;;;;6126325;28;20114;-73
2022/06/16 15:00:04;;;;;;;3.85;2.08;;;51.40;11.90;;;;;;6153570;28;20031;-72
2022/06/16 15:03:09;;;;;;;7.00;1.80;;;51.70;11.80;;;;;;6139267;28;20041;-72
2022/06/16 15:06:11;;;;;;;12.18;2.00;;;51.60;11.70;;;;;;6136676;28;20483;-72
2022/06/16 15:09:17;;;;;;;4.05;1.70;;;51.40;11.80;;;;;;6140876;28;20038;-73
2022/06/16 15:12:19;;;;;;;3.92;1.70;;;51.00;11.90;;;;;;6148936;28;20519;-72
2022/06/16 15:15:23;;;;;;;8.93;2.47;;;50.70;12.10;;;;;;6152461;28;20058;-73
2022/06/16 15:18:30;;;;;;;7.85;1.80;;;50.10;12.30;;;;;;6184576;28;20030;-72
2022/06/16 15:21:31;;;;;;;5.28;1.95;;;49.90;12.80;;;;;;6189403;28;20402;-73
2022/06/16 15:24:43;;;;;;;11.38;2.35;;;49.90;12.90;;;;;;6184768;28;20022;-73
2022/06/16 15:27:47;;;;;;;7.63;2.88;;;49.80;12.90;;;;;;6200115;28;20019;-72
2022/06/16 15:30:50;;;;;;;4.10;1.83;;;49.40;13.00;;;;;;6197869;28;20018;-72
2022/06/16 15:37:23;;;;;;;4.63;2.15;;;48.70;13.50;;;;;;6118163;29;20047;-72
2022/06/16 15:40:33;;;;;;;8.93;2.10;;;48.80;13.60;;;;;;6115650;29;20046;-72
2022/06/16 15:43:36;;;;;;;9.45;2.22;;;48.60;13.80;;;;;;6099275;29;20024;-72
2022/06/16 15:46:42;;;;;;;8.30;2.30;;;48.50;14.00;;;;;;6113271;29;20051;-73
2022/06/16 15:49:49;;;;;;;;;;;48.60;14.00;;;;;;6110463;29;20036;-73
2022/06/16 15:52:55;;;;;;;6.03;2.28;;;48.90;13.90;;;;;;6113438;29;19906;-73
2022/06/16 15:55:56;;;;;;;9.23;2.20;;;49.00;14.00;;;;;;6114586;29;20027;-72
2022/06/16 15:59:08;;;;;;;6.82;2.00;;;48.80;14.30;;;;;;6110999;29;20028;-72
2022/06/16 16:02:10;;;;;;;10.82;2.45;;;48.40;14.60;;;;;;6094408;29;20119;-72
2022/06/16 16:05:14;;;;;;;6.45;2.22;;;48.00;14.80;;;;;;6099909;29;20050;-72
2022/06/16 16:08:21;;;;;;;3.30;2.20;;;47.60;15.00;;;;;;6115716;29;20039;-73
2022/06/16 16:11:27;;;;;;;2.80;1.88;;;47.10;15.20;;;;;;6109031;29;20028;-73
2022/06/16 16:14:48;;;;;;;;;;;46.80;15.60;;;;;;6169003;28;20097;-72
2022/06/16 16:17:51;;;;;;;9.15;2.13;;;46.50;15.90;;;;;;6200316;28;19920;-73
2022/06/16 16:20:56;;;;;;;5.50;2.45;;;46.00;16.30;;;;;;6201342;28;20027;-73
2022/06/16 16:23:57;;;;;;;5.78;2.50;;;45.20;16.90;;;;;;6202097;28;20049;-72
2022/06/16 16:27:08;;;;;;;12.73;2.22;;;44.40;17.40;;;;;;6198306;28;20112;-72
2022/06/16 16:30:16;;;;;;;8.82;2.70;;;43.80;17.90;;;;;;6183294;28;20022;-72
2022/06/16 16:33:24;;;;;;;6.35;2.45;;;43.20;18.30;;;;;;6183508;28;20026;-72
2022/06/16 16:36:33;;;;;;;9.98;2.50;;;42.50;18.80;;;;;;6181016;28;20014;-71